sensor_id;sensor_type;location;lat;lon;timestamp;P1;durP1;ratioP1;P2;durP2;ratioP2
15312;SDS011;7757;52.626;4.746;2022-09-09T00:01:36;6.72;;;1.60;;
15312;SDS011;7757;52.626;4.746;2022-09-09T00:04:10;5.93;;;1.50;;
15312;SDS011;7757;52.626;4.746;2022-09-09T00:06:43;6.30;;;1.50;;
15312;SDS011;7757;52.626;4.746;2022-09-09T00:09:12;8.00;;;1.63;;
15312;SDS011;7757;52.626;4.746;2022-09-09T00:11:46;6.22;;;1.55;;
15312;SDS011;7757;52.626;4.746;2022-09-09T00:14:18;9.00;;;1.85;;
15312;SDS011;7757;52.626;4.746;2022-09-09T00:16:53;8.68;;;1.55;;
15312;SDS011;7757;52.626;4.746;2022-09-09T00:19:22;7.40;;;1.50;;
15312;SDS011;7757;52.626;4.746;2022-09-09T00:21:57;7.82;;;1.50;;
15312;SDS011;7757;52.626;4.746;2022-09-09T00:24:37;6.32;;;1.65;;
15312;SDS011;7757;52.626;4.746;2022-09-09T00:27:11;7.47;;;1.75;;
15312;SDS011;7757;52.626;4.746;2022-09-09T00:29:45;9.23;;;2.03;;
15312;SDS011;7757;52.626;4.746;2022-09-09T00:32:19;7.85;;;2.05;;
15312;SDS011;7757;52.626;4.746;2022-09-09T00:34:47;7.78;;;1.70;;
15312;SDS011;7757;52.626;4.746;2022-09-09T00:37:17;7.07;;;1.50;;
15312;SDS011;7757;52.626;4.746;2022-09-09T00:39:45;13.15;;;2.10;;
15312;SDS011;7757;52.626;4.746;2022-09-09T00:42:15;7.88;;;1.67;;
15312;SDS011;7757;52.626;4.746;2022-09-09T00:44:51;7.68;;;1.60;;
15312;SDS011;7757;52.626;4.746;2022-09-09T00:47:28;6.55;;;1.60;;
15312;SDS011;7757;52.626;4.746;2022-09-09T00:50:09;7.85;;;1.58;;
15312;SDS011;7757;52.626;4.746;2022-09-09T00:52:44;6.35;;;1.40;;
15312;SDS011;7757;52.626;4.746;2022-09-09T00:55:19;8.82;;;1.70;;
15312;SDS011;7757;52.626;4.746;2022-09-09T00:57:54;9.43;;;2.05;;
15312;SDS011;7757;52.626;4.746;2022-09-09T01:00:21;5.60;;;1.50;;
15312;SDS011;7757;52.626;4.746;2022-09-09T01:02:53;6.88;;;1.50;;
15312;SDS011;7757;52.626;4.746;2022-09-09T01:05:30;8.30;;;1.80;;
15312;SDS011;7757;52.626;4.746;2022-09-09T01:08:02;6.05;;;1.73;;
15312;SDS011;7757;52.626;4.746;2022-09-09T01:10:39;8.18;;;1.55;;
15312;SDS011;7757;52.626;4.746;2022-09-09T01:13:17;7.60;;;1.80;;
15312;SDS011;7757;52.626;4.746;2022-09-09T01:15:49;7.95;;;1.85;;
15312;SDS011;7757;52.626;4.746;2022-09-09T01:18:19;6.03;;;1.52;;
15312;SDS011;7757;52.626;4.746;2022-09-09T01:20:53;8.43;;;1.50;;
15312;SDS011;7757;52.626;4.746;2022-09-09T01:23:30;6.95;;;1.73;;
15312;SDS011;7757;52.626;4.746;2022-09-09T01:26:14;6.63;;;1.75;;
15312;SDS011;7757;52.626;4.746;2022-09-09T01:28:45;6.15;;;1.50;;
15312;SDS011;7757;52.626;4.746;2022-09-09T01:31:15;9.02;;;1.75;;
15312;SDS011;7757;52.626;4.746;2022-09-09T01:33:44;7.78;;;1.90;;
15312;SDS011;7757;52.626;4.746;2022-09-09T01:36:12;9.88;;;1.70;;
15312;SDS011;7757;52.626;4.746;2022-09-09T01:38:42;8.82;;;2.00;;
15312;SDS011;7757;52.626;4.746;2022-09-09T01:41:08;5.40;;;1.13;;
15312;SDS011;7757;52.626;4.746;2022-09-09T01:43:36;7.53;;;1.88;;
15312;SDS011;7757;52.626;4.746;2022-09-09T01:46:03;5.70;;;1.85;;
15312;SDS011;7757;52.626;4.746;2022-09-09T01:48:30;8.75;;;1.83;;
15312;SDS011;7757;52.626;4.746;2022-09-09T01:50:58;6.45;;;1.75;;
15312;SDS011;7757;52.626;4.746;2022-09-09T01:53:24;7.28;;;1.88;;
15312;SDS011;7757;52.626;4.746;2022-09-09T01:55:54;6.78;;;1.75;;
15312;SDS011;7757;52.626;4.746;2022-09-09T01:58:31;4.65;;;1.50;;
15312;SDS011;7757;52.626;4.746;2022-09-09T02:01:07;6.15;;;1.58;;
15312;SDS011;7757;52.626;4.746;2022-09-09T02:03:39;8.38;;;2.00;;
15312;SDS011;7757;52.626;4.746;2022-09-09T02:06:14;8.18;;;1.63;;
15312;SDS011;7757;52.626;4.746;2022-09-09T02:08:50;9.23;;;1.80;;
15312;SDS011;7757;52.626;4.746;2022-09-09T02:11:21;8.65;;;1.90;;
15312;SDS011;7757;52.626;4.746;2022-09-09T02:13:51;7.63;;;1.67;;
15312;SDS011;7757;52.626;4.746;2022-09-09T02:16:23;6.28;;;1.73;;
15312;SDS011;7757;52.626;4.746;2022-09-09T02:18:53;9.65;;;1.60;;
15312;SDS011;7757;52.626;4.746;2022-09-09T02:21:24;8.48;;;1.83;;
15312;SDS011;7757;52.626;4.746;2022-09-09T02:23:53;8.23;;;2.10;;
15312;SDS011;7757;52.626;4.746;2022-09-09T02:26:22;10.32;;;1.63;;
15312;SDS011;7757;52.626;4.746;2022-09-09T02:28:52;17.65;;;2.05;;
15312;SDS011;7757;52.626;4.746;2022-09-09T02:31:23;10.35;;;2.13;;
15312;SDS011;7757;52.626;4.746;2022-09-09T02:33:52;6.63;;;1.92;;
15312;SDS011;7757;52.626;4.746;2022-09-09T02:36:23;8.10;;;2.00;;
15312;SDS011;7757;52.626;4.746;2022-09-09T02:38:52;8.15;;;1.70;;
15312;SDS011;7757;52.626;4.746;2022-09-09T02:41:22;7.85;;;1.90;;
15312;SDS011;7757;52.626;4.746;2022-09-09T02:43:51;11.80;;;2.60;;
15312;SDS011;7757;52.626;4.746;2022-09-09T02:46:24;8.90;;;1.95;;
15312;SDS011;7757;52.626;4.746;2022-09-09T02:49:00;11.73;;;3.17;;
15312;SDS011;7757;52.626;4.746;2022-09-09T02:51:35;5.28;;;1.60;;
15312;SDS011;7757;52.626;4.746;2022-09-09T02:54:15;8.68;;;2.35;;
15312;SDS011;7757;52.626;4.746;2022-09-09T02:56:53;8.02;;;1.88;;
15312;SDS011;7757;52.626;4.746;2022-09-09T02:59:21;10.55;;;2.50;;
15312;SDS011;7757;52.626;4.746;2022-09-09T03:01:50;11.98;;;3.78;;
15312;SDS011;7757;52.626;4.746;2022-09-09T03:04:18;7.70;;;1.85;;
15312;SDS011;7757;52.626;4.746;2022-09-09T03:06:45;7.53;;;1.80;;
15312;SDS011;7757;52.626;4.746;2022-09-09T03:09:11;10.25;;;2.78;;
15312;SDS011;7757;52.626;4.746;2022-09-09T03:11:38;7.75;;;1.95;;
15312;SDS011;7757;52.626;4.746;2022-09-09T03:14:04;10.68;;;2.70;;
15312;SDS011;7757;52.626;4.746;2022-09-09T03:16:31;9.55;;;2.70;;
15312;SDS011;7757;52.626;4.746;2022-09-09T03:19:00;10.98;;;2.58;;
15312;SDS011;7757;52.626;4.746;2022-09-09T03:21:27;9.13;;;2.70;;
15312;SDS011;7757;52.626;4.746;2022-09-09T03:23:54;10.82;;;2.58;;
15312;SDS011;7757;52.626;4.746;2022-09-09T03:26:22;10.40;;;3.65;;
15312;SDS011;7757;52.626;4.746;2022-09-09T03:28:48;12.20;;;4.45;;
15312;SDS011;7757;52.626;4.746;2022-09-09T03:31:16;9.32;;;2.63;;
15312;SDS011;7757;52.626;4.746;2022-09-09T03:33:44;8.43;;;2.47;;
15312;SDS011;7757;52.626;4.746;2022-09-09T03:36:12;7.93;;;2.33;;
15312;SDS011;7757;52.626;4.746;2022-09-09T03:38:39;12.98;;;3.20;;
15312;SDS011;7757;52.626;4.746;2022-09-09T03:41:05;11.88;;;2.95;;
15312;SDS011;7757;52.626;4.746;2022-09-09T03:43:33;9.10;;;2.28;;
15312;SDS011;7757;52.626;4.746;2022-09-09T03:45:59;10.35;;;2.40;;
15312;SDS011;7757;52.626;4.746;2022-09-09T03:48:26;8.35;;;2.50;;
15312;SDS011;7757;52.626;4.746;2022-09-09T03:50:54;8.77;;;2.47;;
15312;SDS011;7757;52.626;4.746;2022-09-09T03:53:24;10.07;;;2.67;;
15312;SDS011;7757;52.626;4.746;2022-09-09T03:55:51;9.90;;;2.50;;
15312;SDS011;7757;52.626;4.746;2022-09-09T03:58:20;8.13;;;2.30;;
15312;SDS011;7757;52.626;4.746;2022-09-09T04:00:55;10.32;;;2.70;;
15312;SDS011;7757;52.626;4.746;2022-09-09T04:03:23;16.17;;;5.53;;
15312;SDS011;7757;52.626;4.746;2022-09-09T04:05:50;10.75;;;2.47;;
15312;SDS011;7757;52.626;4.746;2022-09-09T04:08:17;9.20;;;2.30;;
15312;SDS011;7757;52.626;4.746;2022-09-09T04:10:45;8.70;;;1.92;;
15312;SDS011;7757;52.626;4.746;2022-09-09T04:13:13;8.50;;;2.25;;
15312;SDS011;7757;52.626;4.746;2022-09-09T04:15:40;10.35;;;2.50;;
15312;SDS011;7757;52.626;4.746;2022-09-09T04:18:06;6.55;;;1.92;;
15312;SDS011;7757;52.626;4.746;2022-09-09T04:20:33;9.65;;;2.20;;
15312;SDS011;7757;52.626;4.746;2022-09-09T04:23:00;8.57;;;2.00;;
15312;SDS011;7757;52.626;4.746;2022-09-09T04:25:27;8.18;;;2.30;;
15312;SDS011;7757;52.626;4.746;2022-09-09T04:27:55;13.65;;;2.50;;
15312;SDS011;7757;52.626;4.746;2022-09-09T04:30:22;10.00;;;2.72;;
15312;SDS011;7757;52.626;4.746;2022-09-09T04:32:48;8.05;;;2.08;;
15312;SDS011;7757;52.626;4.746;2022-09-09T04:35:15;10.27;;;2.28;;
15312;SDS011;7757;52.626;4.746;2022-09-09T04:37:42;8.35;;;2.10;;
15312;SDS011;7757;52.626;4.746;2022-09-09T04:40:09;9.85;;;2.47;;
15312;SDS011;7757;52.626;4.746;2022-09-09T04:42:36;10.20;;;2.58;;
15312;SDS011;7757;52.626;4.746;2022-09-09T04:45:04;9.32;;;2.15;;
15312;SDS011;7757;52.626;4.746;2022-09-09T04:47:32;13.63;;;2.35;;
15312;SDS011;7757;52.626;4.746;2022-09-09T04:50:00;7.80;;;2.00;;
15312;SDS011;7757;52.626;4.746;2022-09-09T04:52:26;11.30;;;2.55;;
15312;SDS011;7757;52.626;4.746;2022-09-09T04:54:53;7.30;;;2.33;;
15312;SDS011;7757;52.626;4.746;2022-09-09T04:57:19;9.75;;;2.20;;
15312;SDS011;7757;52.626;4.746;2022-09-09T04:59:46;8.38;;;2.05;;
15312;SDS011;7757;52.626;4.746;2022-09-09T05:02:14;10.18;;;2.63;;
15312;SDS011;7757;52.626;4.746;2022-09-09T05:04:40;9.70;;;2.45;;
15312;SDS011;7757;52.626;4.746;2022-09-09T05:07:07;15.43;;;3.08;;
15312;SDS011;7757;52.626;4.746;2022-09-09T05:09:34;11.23;;;2.90;;
15312;SDS011;7757;52.626;4.746;2022-09-09T05:12:00;11.57;;;2.75;;
15312;SDS011;7757;52.626;4.746;2022-09-09T05:14:27;11.85;;;2.85;;
15312;SDS011;7757;52.626;4.746;2022-09-09T05:16:54;9.30;;;2.70;;
15312;SDS011;7757;52.626;4.746;2022-09-09T05:19:22;11.10;;;2.40;;
15312;SDS011;7757;52.626;4.746;2022-09-09T05:21:49;12.05;;;2.60;;
15312;SDS011;7757;52.626;4.746;2022-09-09T05:24:16;9.70;;;2.10;;
15312;SDS011;7757;52.626;4.746;2022-09-09T05:26:44;8.43;;;2.28;;
15312;SDS011;7757;52.626;4.746;2022-09-09T05:29:10;9.10;;;2.33;;
15312;SDS011;7757;52.626;4.746;2022-09-09T05:31:37;10.23;;;2.38;;
15312;SDS011;7757;52.626;4.746;2022-09-09T05:34:04;11.93;;;2.90;;
15312;SDS011;7757;52.626;4.746;2022-09-09T05:36:31;12.20;;;2.78;;
15312;SDS011;7757;52.626;4.746;2022-09-09T05:38:58;19.20;;;3.17;;
15312;SDS011;7757;52.626;4.746;2022-09-09T05:41:26;13.90;;;3.30;;
15312;SDS011;7757;52.626;4.746;2022-09-09T05:43:53;13.73;;;3.30;;
15312;SDS011;7757;52.626;4.746;2022-09-09T05:46:21;14.40;;;3.65;;
15312;SDS011;7757;52.626;4.746;2022-09-09T05:48:49;19.52;;;3.70;;
15312;SDS011;7757;52.626;4.746;2022-09-09T05:51:17;18.23;;;4.22;;
15312;SDS011;7757;52.626;4.746;2022-09-09T05:53:47;19.83;;;4.13;;
15312;SDS011;7757;52.626;4.746;2022-09-09T05:56:16;23.35;;;4.28;;
15312;SDS011;7757;52.626;4.746;2022-09-09T05:58:45;21.02;;;4.10;;
15312;SDS011;7757;52.626;4.746;2022-09-09T06:01:15;14.52;;;3.83;;
15312;SDS011;7757;52.626;4.746;2022-09-09T06:03:43;11.75;;;3.60;;
15312;SDS011;7757;52.626;4.746;2022-09-09T06:06:12;12.95;;;3.38;;
15312;SDS011;7757;52.626;4.746;2022-09-09T06:08:41;12.15;;;2.80;;
15312;SDS011;7757;52.626;4.746;2022-09-09T06:11:12;13.40;;;2.60;;
15312;SDS011;7757;52.626;4.746;2022-09-09T06:13:40;14.48;;;2.80;;
15312;SDS011;7757;52.626;4.746;2022-09-09T06:16:07;10.75;;;2.38;;
15312;SDS011;7757;52.626;4.746;2022-09-09T06:18:36;12.48;;;2.67;;
15312;SDS011;7757;52.626;4.746;2022-09-09T06:21:04;8.13;;;2.10;;
15312;SDS011;7757;52.626;4.746;2022-09-09T06:23:32;12.07;;;2.08;;
15312;SDS011;7757;52.626;4.746;2022-09-09T06:26:00;12.80;;;2.60;;
15312;SDS011;7757;52.626;4.746;2022-09-09T06:28:30;11.25;;;2.17;;
15312;SDS011;7757;52.626;4.746;2022-09-09T06:30:57;10.00;;;2.13;;
15312;SDS011;7757;52.626;4.746;2022-09-09T06:33:24;11.63;;;2.50;;
15312;SDS011;7757;52.626;4.746;2022-09-09T06:35:51;10.93;;;2.40;;
15312;SDS011;7757;52.626;4.746;2022-09-09T06:38:18;9.63;;;2.17;;
15312;SDS011;7757;52.626;4.746;2022-09-09T06:40:50;9.65;;;2.10;;
15312;SDS011;7757;52.626;4.746;2022-09-09T06:43:17;12.20;;;2.15;;
15312;SDS011;7757;52.626;4.746;2022-09-09T06:45:53;12.00;;;2.42;;
15312;SDS011;7757;52.626;4.746;2022-09-09T06:48:20;11.98;;;2.30;;
15312;SDS011;7757;52.626;4.746;2022-09-09T06:50:47;11.48;;;2.47;;
15312;SDS011;7757;52.626;4.746;2022-09-09T06:53:15;11.52;;;2.53;;
15312;SDS011;7757;52.626;4.746;2022-09-09T06:55:44;13.73;;;2.25;;
15312;SDS011;7757;52.626;4.746;2022-09-09T06:58:11;11.43;;;2.38;;
15312;SDS011;7757;52.626;4.746;2022-09-09T07:00:38;11.55;;;2.40;;
15312;SDS011;7757;52.626;4.746;2022-09-09T07:03:06;12.43;;;2.17;;
15312;SDS011;7757;52.626;4.746;2022-09-09T07:05:33;14.13;;;2.50;;
15312;SDS011;7757;52.626;4.746;2022-09-09T07:07:59;11.82;;;2.38;;
15312;SDS011;7757;52.626;4.746;2022-09-09T07:10:26;10.02;;;1.90;;
15312;SDS011;7757;52.626;4.746;2022-09-09T07:12:53;10.30;;;2.20;;
15312;SDS011;7757;52.626;4.746;2022-09-09T07:15:20;10.82;;;2.42;;
15312;SDS011;7757;52.626;4.746;2022-09-09T07:17:47;9.82;;;2.60;;
15312;SDS011;7757;52.626;4.746;2022-09-09T07:20:15;11.93;;;2.80;;
15312;SDS011;7757;52.626;4.746;2022-09-09T07:22:42;10.75;;;2.47;;
15312;SDS011;7757;52.626;4.746;2022-09-09T07:25:08;11.93;;;3.08;;
15312;SDS011;7757;52.626;4.746;2022-09-09T07:27:35;11.60;;;3.00;;
15312;SDS011;7757;52.626;4.746;2022-09-09T07:30:02;12.73;;;3.17;;
15312;SDS011;7757;52.626;4.746;2022-09-09T07:32:29;14.77;;;3.28;;
15312;SDS011;7757;52.626;4.746;2022-09-09T07:34:56;13.02;;;2.80;;
15312;SDS011;7757;52.626;4.746;2022-09-09T07:37:24;13.85;;;3.25;;
15312;SDS011;7757;52.626;4.746;2022-09-09T07:39:51;14.45;;;3.50;;
15312;SDS011;7757;52.626;4.746;2022-09-09T07:42:17;14.45;;;3.85;;
15312;SDS011;7757;52.626;4.746;2022-09-09T07:44:44;10.98;;;3.30;;
15312;SDS011;7757;52.626;4.746;2022-09-09T07:47:10;11.23;;;3.38;;
15312;SDS011;7757;52.626;4.746;2022-09-09T07:49:37;10.50;;;3.13;;
15312;SDS011;7757;52.626;4.746;2022-09-09T07:52:04;10.77;;;2.90;;
15312;SDS011;7757;52.626;4.746;2022-09-09T07:54:32;11.57;;;3.20;;
15312;SDS011;7757;52.626;4.746;2022-09-09T07:56:58;11.77;;;3.45;;
15312;SDS011;7757;52.626;4.746;2022-09-09T07:59:24;11.48;;;3.08;;
15312;SDS011;7757;52.626;4.746;2022-09-09T08:01:51;11.73;;;3.63;;
15312;SDS011;7757;52.626;4.746;2022-09-09T08:04:19;13.10;;;3.88;;
15312;SDS011;7757;52.626;4.746;2022-09-09T08:06:48;14.27;;;3.78;;
15312;SDS011;7757;52.626;4.746;2022-09-09T08:09:18;10.55;;;3.55;;
15312;SDS011;7757;52.626;4.746;2022-09-09T08:11:47;12.60;;;3.80;;
15312;SDS011;7757;52.626;4.746;2022-09-09T08:14:14;14.13;;;3.85;;
15312;SDS011;7757;52.626;4.746;2022-09-09T08:16:41;10.98;;;4.25;;
15312;SDS011;7757;52.626;4.746;2022-09-09T08:19:08;13.95;;;3.90;;
15312;SDS011;7757;52.626;4.746;2022-09-09T08:21:35;15.23;;;4.38;;
15312;SDS011;7757;52.626;4.746;2022-09-09T08:24:05;12.50;;;3.55;;
15312;SDS011;7757;52.626;4.746;2022-09-09T08:26:34;12.80;;;3.70;;
15312;SDS011;7757;52.626;4.746;2022-09-09T08:29:04;13.32;;;3.63;;
15312;SDS011;7757;52.626;4.746;2022-09-09T08:31:33;15.60;;;4.10;;
15312;SDS011;7757;52.626;4.746;2022-09-09T08:34:02;12.45;;;3.63;;
15312;SDS011;7757;52.626;4.746;2022-09-09T08:36:30;13.15;;;3.40;;
15312;SDS011;7757;52.626;4.746;2022-09-09T08:38:58;12.68;;;3.58;;
15312;SDS011;7757;52.626;4.746;2022-09-09T08:41:36;9.98;;;3.15;;
15312;SDS011;7757;52.626;4.746;2022-09-09T08:44:12;10.02;;;3.08;;
15312;SDS011;7757;52.626;4.746;2022-09-09T08:46:49;13.95;;;3.60;;
15312;SDS011;7757;52.626;4.746;2022-09-09T08:49:29;12.77;;;3.28;;
15312;SDS011;7757;52.626;4.746;2022-09-09T08:52:12;11.52;;;3.08;;
15312;SDS011;7757;52.626;4.746;2022-09-09T08:54:44;9.50;;;2.75;;
15312;SDS011;7757;52.626;4.746;2022-09-09T08:57:13;13.77;;;3.60;;
15312;SDS011;7757;52.626;4.746;2022-09-09T08:59:47;9.77;;;2.80;;
15312;SDS011;7757;52.626;4.746;2022-09-09T09:02:21;10.35;;;3.08;;
15312;SDS011;7757;52.626;4.746;2022-09-09T09:04:55;13.63;;;3.40;;
15312;SDS011;7757;52.626;4.746;2022-09-09T09:07:32;12.55;;;3.28;;
15312;SDS011;7757;52.626;4.746;2022-09-09T09:10:10;15.00;;;3.63;;
15312;SDS011;7757;52.626;4.746;2022-09-09T09:12:42;12.63;;;3.70;;
15312;SDS011;7757;52.626;4.746;2022-09-09T09:15:18;14.07;;;3.42;;
15312;SDS011;7757;52.626;4.746;2022-09-09T09:17:47;11.95;;;3.20;;
15312;SDS011;7757;52.626;4.746;2022-09-09T09:20:14;14.63;;;3.15;;
15312;SDS011;7757;52.626;4.746;2022-09-09T09:22:44;12.13;;;3.35;;
15312;SDS011;7757;52.626;4.746;2022-09-09T09:25:16;18.77;;;3.22;;
15312;SDS011;7757;52.626;4.746;2022-09-09T09:27:46;10.95;;;3.10;;
15312;SDS011;7757;52.626;4.746;2022-09-09T09:30:21;12.57;;;3.13;;
15312;SDS011;7757;52.626;4.746;2022-09-09T09:32:51;12.52;;;3.30;;
15312;SDS011;7757;52.626;4.746;2022-09-09T09:35:20;12.23;;;2.80;;
15312;SDS011;7757;52.626;4.746;2022-09-09T09:37:46;9.32;;;3.05;;
15312;SDS011;7757;52.626;4.746;2022-09-09T09:40:15;9.45;;;2.95;;
15312;SDS011;7757;52.626;4.746;2022-09-09T09:42:51;15.82;;;3.47;;
15312;SDS011;7757;52.626;4.746;2022-09-09T09:45:27;11.52;;;3.20;;
15312;SDS011;7757;52.626;4.746;2022-09-09T09:47:59;13.15;;;3.08;;
15312;SDS011;7757;52.626;4.746;2022-09-09T09:50:28;11.38;;;3.20;;
15312;SDS011;7757;52.626;4.746;2022-09-09T09:52:57;12.15;;;3.40;;
15312;SDS011;7757;52.626;4.746;2022-09-09T09:55:25;11.63;;;3.08;;
15312;SDS011;7757;52.626;4.746;2022-09-09T09:57:52;12.73;;;3.20;;
15312;SDS011;7757;52.626;4.746;2022-09-09T10:00:20;11.88;;;2.92;;
15312;SDS011;7757;52.626;4.746;2022-09-09T10:02:49;13.02;;;3.65;;
15312;SDS011;7757;52.626;4.746;2022-09-09T10:05:18;13.20;;;3.53;;
15312;SDS011;7757;52.626;4.746;2022-09-09T10:07:46;14.27;;;3.35;;
15312;SDS011;7757;52.626;4.746;2022-09-09T10:10:15;10.88;;;3.08;;
15312;SDS011;7757;52.626;4.746;2022-09-09T10:12:49;11.53;;;3.00;;
15312;SDS011;7757;52.626;4.746;2022-09-09T10:15:27;13.15;;;3.00;;
15312;SDS011;7757;52.626;4.746;2022-09-09T10:18:03;11.85;;;3.30;;
15312;SDS011;7757;52.626;4.746;2022-09-09T10:20:45;12.60;;;3.40;;
15312;SDS011;7757;52.626;4.746;2022-09-09T10:23:22;11.23;;;3.10;;
15312;SDS011;7757;52.626;4.746;2022-09-09T10:25:59;14.15;;;3.75;;
15312;SDS011;7757;52.626;4.746;2022-09-09T10:28:45;14.40;;;3.40;;
15312;SDS011;7757;52.626;4.746;2022-09-09T10:31:24;10.52;;;3.13;;
15312;SDS011;7757;52.626;4.746;2022-09-09T10:34:03;11.27;;;3.10;;
15312;SDS011;7757;52.626;4.746;2022-09-09T10:36:39;9.52;;;2.60;;
15312;SDS011;7757;52.626;4.746;2022-09-09T10:39:14;11.43;;;2.88;;
15312;SDS011;7757;52.626;4.746;2022-09-09T10:41:56;11.27;;;3.55;;
15312;SDS011;7757;52.626;4.746;2022-09-09T10:44:34;10.85;;;2.75;;
15312;SDS011;7757;52.626;4.746;2022-09-09T10:47:19;11.52;;;3.10;;
15312;SDS011;7757;52.626;4.746;2022-09-09T10:50:04;12.85;;;3.47;;
15312;SDS011;7757;52.626;4.746;2022-09-09T10:52:42;9.93;;;3.10;;
15312;SDS011;7757;52.626;4.746;2022-09-09T10:55:19;11.05;;;3.03;;
15312;SDS011;7757;52.626;4.746;2022-09-09T10:57:51;9.30;;;2.63;;
15312;SDS011;7757;52.626;4.746;2022-09-09T11:00:20;10.93;;;2.90;;
15312;SDS011;7757;52.626;4.746;2022-09-09T11:02:50;10.32;;;2.85;;
15312;SDS011;7757;52.626;4.746;2022-09-09T11:05:24;11.45;;;2.72;;
15312;SDS011;7757;52.626;4.746;2022-09-09T11:07:55;10.93;;;2.85;;
15312;SDS011;7757;52.626;4.746;2022-09-09T11:10:26;10.75;;;3.08;;
15312;SDS011;7757;52.626;4.746;2022-09-09T11:13:01;10.98;;;2.65;;
15312;SDS011;7757;52.626;4.746;2022-09-09T11:15:35;11.00;;;3.20;;
15312;SDS011;7757;52.626;4.746;2022-09-09T11:18:08;10.68;;;2.55;;
15312;SDS011;7757;52.626;4.746;2022-09-09T11:20:41;11.95;;;2.72;;
15312;SDS011;7757;52.626;4.746;2022-09-09T11:23:10;10.40;;;2.72;;
15312;SDS011;7757;52.626;4.746;2022-09-09T11:25:39;13.10;;;2.80;;
15312;SDS011;7757;52.626;4.746;2022-09-09T11:28:13;9.95;;;2.70;;
15312;SDS011;7757;52.626;4.746;2022-09-09T11:30:51;7.68;;;2.17;;
15312;SDS011;7757;52.626;4.746;2022-09-09T11:36:21;7.82;;;2.35;;
15312;SDS011;7757;52.626;4.746;2022-09-09T11:39:14;9.23;;;2.75;;
15312;SDS011;7757;52.626;4.746;2022-09-09T11:42:05;10.50;;;2.22;;
15312;SDS011;7757;52.626;4.746;2022-09-09T11:44:33;9.45;;;2.47;;
15312;SDS011;7757;52.626;4.746;2022-09-09T11:46:59;8.10;;;1.98;;
15312;SDS011;7757;52.626;4.746;2022-09-09T11:49:27;8.00;;;2.10;;
15312;SDS011;7757;52.626;4.746;2022-09-09T11:51:57;18.35;;;3.22;;
15312;SDS011;7757;52.626;4.746;2022-09-09T11:54:28;8.93;;;2.30;;
15312;SDS011;7757;52.626;4.746;2022-09-09T11:56:56;8.32;;;2.30;;
15312;SDS011;7757;52.626;4.746;2022-09-09T11:59:23;8.77;;;2.25;;
15312;SDS011;7757;52.626;4.746;2022-09-09T12:01:54;7.95;;;2.17;;
15312;SDS011;7757;52.626;4.746;2022-09-09T12:04:28;9.73;;;2.38;;
15312;SDS011;7757;52.626;4.746;2022-09-09T12:06:59;11.32;;;2.30;;
15312;SDS011;7757;52.626;4.746;2022-09-09T12:09:44;9.30;;;2.28;;
15312;SDS011;7757;52.626;4.746;2022-09-09T12:12:25;9.48;;;2.17;;
15312;SDS011;7757;52.626;4.746;2022-09-09T12:14:58;7.55;;;2.00;;
15312;SDS011;7757;52.626;4.746;2022-09-09T12:17:27;10.77;;;2.35;;
15312;SDS011;7757;52.626;4.746;2022-09-09T12:20:02;9.88;;;2.55;;
15312;SDS011;7757;52.626;4.746;2022-09-09T12:22:37;8.77;;;2.35;;
15312;SDS011;7757;52.626;4.746;2022-09-09T12:25:16;8.13;;;2.20;;
15312;SDS011;7757;52.626;4.746;2022-09-09T12:27:54;10.50;;;2.20;;
15312;SDS011;7757;52.626;4.746;2022-09-09T12:30:29;9.15;;;2.30;;
15312;SDS011;7757;52.626;4.746;2022-09-09T12:33:02;8.50;;;2.35;;
15312;SDS011;7757;52.626;4.746;2022-09-09T12:35:34;8.13;;;2.00;;
15312;SDS011;7757;52.626;4.746;2022-09-09T12:38:04;8.13;;;2.05;;
15312;SDS011;7757;52.626;4.746;2022-09-09T12:40:37;8.50;;;2.20;;
15312;SDS011;7757;52.626;4.746;2022-09-09T12:43:15;10.32;;;2.00;;
15312;SDS011;7757;52.626;4.746;2022-09-09T12:45:44;6.45;;;1.92;;
15312;SDS011;7757;52.626;4.746;2022-09-09T12:48:11;9.80;;;1.85;;
15312;SDS011;7757;52.626;4.746;2022-09-09T12:50:43;9.57;;;2.00;;
15312;SDS011;7757;52.626;4.746;2022-09-09T12:53:15;7.93;;;1.90;;
15312;SDS011;7757;52.626;4.746;2022-09-09T12:55:50;10.13;;;2.00;;
15312;SDS011;7757;52.626;4.746;2022-09-09T12:58:18;9.13;;;2.40;;
15312;SDS011;7757;52.626;4.746;2022-09-09T13:00:48;7.20;;;1.90;;
15312;SDS011;7757;52.626;4.746;2022-09-09T13:03:17;8.55;;;2.10;;
15312;SDS011;7757;52.626;4.746;2022-09-09T13:05:46;24.70;;;2.63;;
15312;SDS011;7757;52.626;4.746;2022-09-09T13:08:14;10.23;;;1.90;;
15312;SDS011;7757;52.626;4.746;2022-09-09T13:10:46;12.30;;;1.77;;
15312;SDS011;7757;52.626;4.746;2022-09-09T13:13:20;6.93;;;1.80;;
15312;SDS011;7757;52.626;4.746;2022-09-09T13:15:49;12.52;;;1.90;;
15312;SDS011;7757;52.626;4.746;2022-09-09T13:18:19;10.52;;;1.95;;
15312;SDS011;7757;52.626;4.746;2022-09-09T13:20:48;9.02;;;2.03;;
15312;SDS011;7757;52.626;4.746;2022-09-09T13:23:18;6.80;;;1.60;;
15312;SDS011;7757;52.626;4.746;2022-09-09T13:25:52;6.85;;;1.70;;
15312;SDS011;7757;52.626;4.746;2022-09-09T13:28:21;8.57;;;1.90;;
15312;SDS011;7757;52.626;4.746;2022-09-09T13:30:56;7.80;;;1.85;;
15312;SDS011;7757;52.626;4.746;2022-09-09T13:33:29;7.80;;;1.70;;
15312;SDS011;7757;52.626;4.746;2022-09-09T13:35:58;6.47;;;1.80;;
15312;SDS011;7757;52.626;4.746;2022-09-09T13:38:30;6.90;;;1.73;;
15312;SDS011;7757;52.626;4.746;2022-09-09T13:41:00;5.88;;;1.67;;
15312;SDS011;7757;52.626;4.746;2022-09-09T13:43:29;7.65;;;1.70;;
15312;SDS011;7757;52.626;4.746;2022-09-09T13:45:58;9.20;;;1.80;;
15312;SDS011;7757;52.626;4.746;2022-09-09T13:48:27;7.93;;;1.83;;
15312;SDS011;7757;52.626;4.746;2022-09-09T13:50:59;6.45;;;1.60;;
15312;SDS011;7757;52.626;4.746;2022-09-09T13:53:27;7.45;;;1.80;;
15312;SDS011;7757;52.626;4.746;2022-09-09T13:55:56;7.85;;;1.70;;
15312;SDS011;7757;52.626;4.746;2022-09-09T13:58:23;8.73;;;1.75;;
15312;SDS011;7757;52.626;4.746;2022-09-09T14:00:50;9.07;;;1.58;;
15312;SDS011;7757;52.626;4.746;2022-09-09T14:03:17;6.18;;;1.55;;
15312;SDS011;7757;52.626;4.746;2022-09-09T14:05:44;7.13;;;1.77;;
15312;SDS011;7757;52.626;4.746;2022-09-09T14:08:14;7.63;;;1.90;;
15312;SDS011;7757;52.626;4.746;2022-09-09T14:10:50;6.03;;;1.67;;
15312;SDS011;7757;52.626;4.746;2022-09-09T14:13:18;6.28;;;1.80;;
15312;SDS011;7757;52.626;4.746;2022-09-09T14:15:47;8.35;;;1.90;;
15312;SDS011;7757;52.626;4.746;2022-09-09T14:18:14;8.55;;;1.60;;
15312;SDS011;7757;52.626;4.746;2022-09-09T14:20:41;6.68;;;1.77;;
15312;SDS011;7757;52.626;4.746;2022-09-09T14:23:09;6.45;;;1.67;;
15312;SDS011;7757;52.626;4.746;2022-09-09T14:25:39;6.63;;;1.85;;
15312;SDS011;7757;52.626;4.746;2022-09-09T14:28:07;6.38;;;1.80;;
15312;SDS011;7757;52.626;4.746;2022-09-09T14:30:36;7.07;;;1.80;;
15312;SDS011;7757;52.626;4.746;2022-09-09T14:33:03;5.60;;;1.60;;
15312;SDS011;7757;52.626;4.746;2022-09-09T14:35:30;7.30;;;1.92;;
15312;SDS011;7757;52.626;4.746;2022-09-09T14:37:58;8.02;;;1.85;;
15312;SDS011;7757;52.626;4.746;2022-09-09T14:40:26;9.02;;;2.08;;
15312;SDS011;7757;52.626;4.746;2022-09-09T14:42:52;6.30;;;1.85;;
15312;SDS011;7757;52.626;4.746;2022-09-09T14:45:20;6.78;;;2.00;;
15312;SDS011;7757;52.626;4.746;2022-09-09T14:47:50;8.23;;;1.90;;
15312;SDS011;7757;52.626;4.746;2022-09-09T14:50:17;7.95;;;2.15;;
15312;SDS011;7757;52.626;4.746;2022-09-09T14:52:44;7.75;;;2.35;;
15312;SDS011;7757;52.626;4.746;2022-09-09T14:55:10;8.90;;;2.15;;
15312;SDS011;7757;52.626;4.746;2022-09-09T14:57:37;8.02;;;2.10;;
15312;SDS011;7757;52.626;4.746;2022-09-09T15:00:04;6.68;;;2.45;;
15312;SDS011;7757;52.626;4.746;2022-09-09T15:02:31;6.53;;;1.88;;
15312;SDS011;7757;52.626;4.746;2022-09-09T15:04:59;7.90;;;2.05;;
15312;SDS011;7757;52.626;4.746;2022-09-09T15:07:26;5.65;;;1.75;;
15312;SDS011;7757;52.626;4.746;2022-09-09T15:09:53;7.75;;;2.13;;
15312;SDS011;7757;52.626;4.746;2022-09-09T15:12:20;6.20;;;1.90;;
15312;SDS011;7757;52.626;4.746;2022-09-09T15:14:47;7.15;;;2.00;;
15312;SDS011;7757;52.626;4.746;2022-09-09T15:17:15;6.88;;;1.80;;